sensor_id;sensor_type;location;lat;lon;timestamp;pressure;altitude;pressure_sealevel;temperature;humidity
3464;BME280;3551;41.578;24.706;2023-03-18T00:00:43;91424.78;;;3.56;63.27
3464;BME280;3551;41.578;24.706;2023-03-18T00:03:34;91424.91;;;3.44;63.04
3464;BME280;3551;41.578;24.706;2023-03-18T00:06:10;91423.94;;;3.36;63.14
3464;BME280;3551;41.578;24.706;2023-03-18T00:08:53;91412.69;;;3.39;62.84
3464;BME280;3551;41.578;24.706;2023-03-18T00:11:24;91410.97;;;3.63;62.01
3464;BME280;3551;41.578;24.706;2023-03-18T00:14:06;91403.91;;;3.51;62.34
3464;BME280;3551;41.578;24.706;2023-03-18T00:16:36;91406.97;;;3.22;63.16
3464;BME280;3551;41.578;24.706;2023-03-18T00:19:06;91398.38;;;3.40;63.11
3464;BME280;3551;41.578;24.706;2023-03-18T00:21:58;91390.88;;;3.42;62.36
3464;BME280;3551;41.578;24.706;2023-03-18T00:24:31;91394.19;;;3.55;62.95
3464;BME280;3551;41.578;24.706;2023-03-18T00:27:26;91388.72;;;3.48;63.59
3464;BME280;3551;41.578;24.706;2023-03-18T00:32:48;91385.00;;;4.00;62.44
3464;BME280;3551;41.578;24.706;2023-03-18T00:35:17;91378.75;;;4.08;62.77
3464;BME280;3551;41.578;24.706;2023-03-18T00:37:58;91381.50;;;4.15;62.76
3464;BME280;3551;41.578;24.706;2023-03-18T00:40:28;91378.34;;;3.90;63.09
3464;BME280;3551;41.578;24.706;2023-03-18T00:43:08;91380.59;;;3.88;62.71
3464;BME280;3551;41.578;24.706;2023-03-18T00:45:40;91381.09;;;3.78;63.13
3464;BME280;3551;41.578;24.706;2023-03-18T00:48:13;91377.38;;;3.63;63.59
3464;BME280;3551;41.578;24.706;2023-03-18T00:51:02;91371.91;;;3.72;63.60
3464;BME280;3551;41.578;24.706;2023-03-18T00:53:34;91365.16;;;3.74;64.10
3464;BME280;3551;41.578;24.706;2023-03-18T00:56:05;91363.19;;;3.87;62.88
3464;BME280;3551;41.578;24.706;2023-03-18T00:58:36;91363.09;;;3.83;62.88
3464;BME280;3551;41.578;24.706;2023-03-18T01:01:09;91353.28;;;3.84;62.77
3464;BME280;3551;41.578;24.706;2023-03-18T01:03:40;91349.84;;;3.99;62.77
3464;BME280;3551;41.578;24.706;2023-03-18T01:06:30;91347.19;;;3.99;62.37
3464;BME280;3551;41.578;24.706;2023-03-18T01:09:07;91348.94;;;4.11;61.26
3464;BME280;3551;41.578;24.706;2023-03-18T01:11:37;91348.50;;;4.09;61.33
3464;BME280;3551;41.578;24.706;2023-03-18T01:14:26;91341.91;;;3.99;61.60
3464;BME280;3551;41.578;24.706;2023-03-18T01:17:00;91343.69;;;3.95;61.49
3464;BME280;3551;41.578;24.706;2023-03-18T01:19:50;91350.91;;;4.14;61.61
3464;BME280;3551;41.578;24.706;2023-03-18T01:22:24;91346.69;;;3.93;61.25
3464;BME280;3551;41.578;24.706;2023-03-18T01:25:02;91343.19;;;3.89;61.84
3464;BME280;3551;41.578;24.706;2023-03-18T01:27:46;91336.16;;;3.78;61.97
3464;BME280;3551;41.578;24.706;2023-03-18T01:30:15;91336.44;;;3.92;61.77
3464;BME280;3551;41.578;24.706;2023-03-18T01:35:53;91339.75;;;4.05;61.96
3464;BME280;3551;41.578;24.706;2023-03-18T01:38:27;91341.03;;;3.76;61.51
3464;BME280;3551;41.578;24.706;2023-03-18T01:40:55;91342.78;;;3.87;61.42
3464;BME280;3551;41.578;24.706;2023-03-18T01:43:30;91339.53;;;3.94;61.06
3464;BME280;3551;41.578;24.706;2023-03-18T01:46:29;91336.88;;;4.13;60.53
3464;BME280;3551;41.578;24.706;2023-03-18T01:49:07;91341.81;;;4.15;60.01
3464;BME280;3551;41.578;24.706;2023-03-18T01:55:11;91336.81;;;4.10;60.28
3464;BME280;3551;41.578;24.706;2023-03-18T01:57:55;91344.19;;;4.01;60.91
3464;BME280;3551;41.578;24.706;2023-03-18T02:00:24;91345.16;;;4.12;61.11
3464;BME280;3551;41.578;24.706;2023-03-18T02:02:59;91346.50;;;4.21;60.89
3464;BME280;3551;41.578;24.706;2023-03-18T02:05:48;91336.03;;;4.09;61.39
3464;BME280;3551;41.578;24.706;2023-03-18T02:08:36;91338.56;;;4.21;61.05
3464;BME280;3551;41.578;24.706;2023-03-18T02:11:21;91338.69;;;4.09;61.01
3464;BME280;3551;41.578;24.706;2023-03-18T02:13:54;91336.41;;;4.27;60.34
3464;BME280;3551;41.578;24.706;2023-03-18T02:16:43;91340.22;;;4.29;59.80
3464;BME280;3551;41.578;24.706;2023-03-18T02:19:40;91330.97;;;4.39;59.32
3464;BME280;3551;41.578;24.706;2023-03-18T02:22:24;91343.53;;;4.23;60.04
3464;BME280;3551;41.578;24.706;2023-03-18T02:25:20;91344.69;;;4.25;59.76
3464;BME280;3551;41.578;24.706;2023-03-18T02:28:06;91347.47;;;4.32;59.86
3464;BME280;3551;41.578;24.706;2023-03-18T02:30:43;91354.44;;;4.21;60.95
3464;BME280;3551;41.578;24.706;2023-03-18T02:33:38;91345.53;;;4.10;61.39
3464;BME280;3551;41.578;24.706;2023-03-18T02:36:41;91342.66;;;4.00;61.57
3464;BME280;3551;41.578;24.706;2023-03-18T02:39:38;91341.06;;;4.14;61.38
3464;BME280;3551;41.578;24.706;2023-03-18T02:42:25;91336.97;;;4.17;60.62
3464;BME280;3551;41.578;24.706;2023-03-18T02:45:04;91337.44;;;4.22;60.66
3464;BME280;3551;41.578;24.706;2023-03-18T02:47:36;91340.59;;;4.28;60.43
3464;BME280;3551;41.578;24.706;2023-03-18T02:50:21;91337.03;;;4.20;60.86
3464;BME280;3551;41.578;24.706;2023-03-18T02:52:59;91335.84;;;4.18;60.12
3464;BME280;3551;41.578;24.706;2023-03-18T02:55:29;91340.16;;;4.07;60.10
3464;BME280;3551;41.578;24.706;2023-03-18T02:58:04;91342.19;;;4.13;60.46
3464;BME280;3551;41.578;24.706;2023-03-18T03:03:33;91339.53;;;4.13;61.49
3464;BME280;3551;41.578;24.706;2023-03-18T03:06:05;91337.09;;;4.05;62.18
3464;BME280;3551;41.578;24.706;2023-03-18T03:08:40;91337.78;;;4.21;62.43
3464;BME280;3551;41.578;24.706;2023-03-18T03:11:14;91338.72;;;4.28;64.01
3464;BME280;3551;41.578;24.706;2023-03-18T03:13:47;91327.16;;;4.17;63.57
3464;BME280;3551;41.578;24.706;2023-03-18T03:16:23;91326.59;;;4.27;64.19
3464;BME280;3551;41.578;24.706;2023-03-18T03:19:14;91327.69;;;4.26;63.16
3464;BME280;3551;41.578;24.706;2023-03-18T03:21:47;91335.78;;;4.33;62.94
3464;BME280;3551;41.578;24.706;2023-03-18T03:24:32;91337.94;;;4.28;63.00
3464;BME280;3551;41.578;24.706;2023-03-18T03:27:07;91333.88;;;4.15;63.03
3464;BME280;3551;41.578;24.706;2023-03-18T03:29:50;91338.16;;;4.19;62.88
3464;BME280;3551;41.578;24.706;2023-03-18T03:32:21;91338.44;;;4.14;63.09
3464;BME280;3551;41.578;24.706;2023-03-18T03:35:19;91340.91;;;4.07;62.97
3464;BME280;3551;41.578;24.706;2023-03-18T03:37:48;91340.50;;;4.24;62.56
3464;BME280;3551;41.578;24.706;2023-03-18T03:40:31;91336.63;;;4.37;62.37
3464;BME280;3551;41.578;24.706;2023-03-18T03:43:02;91341.06;;;4.33;63.04
3464;BME280;3551;41.578;24.706;2023-03-18T03:45:37;91347.19;;;4.18;63.78
3464;BME280;3551;41.578;24.706;2023-03-18T03:48:12;91335.28;;;4.09;64.34
3464;BME280;3551;41.578;24.706;2023-03-18T03:50:57;91340.44;;;4.21;64.12
3464;BME280;3551;41.578;24.706;2023-03-18T03:53:32;91338.75;;;4.13;64.63
3464;BME280;3551;41.578;24.706;2023-03-18T03:56:24;91337.88;;;4.24;64.04
3464;BME280;3551;41.578;24.706;2023-03-18T03:58:56;91335.06;;;4.36;64.11
3464;BME280;3551;41.578;24.706;2023-03-18T04:01:32;91334.72;;;4.19;64.54
3464;BME280;3551;41.578;24.706;2023-03-18T04:04:11;91340.22;;;4.29;65.88
3464;BME280;3551;41.578;24.706;2023-03-18T04:06:57;91338.63;;;4.25;66.09
3464;BME280;3551;41.578;24.706;2023-03-18T04:09:52;91333.22;;;4.37;66.25
3464;BME280;3551;41.578;24.706;2023-03-18T04:12:23;91345.09;;;4.27;66.08
3464;BME280;3551;41.578;24.706;2023-03-18T04:14:54;91346.00;;;4.16;65.55
3464;BME280;3551;41.578;24.706;2023-03-18T04:17:34;91340.03;;;4.19;65.39
3464;BME280;3551;41.578;24.706;2023-03-18T04:20:20;91338.22;;;4.23;65.56
3464;BME280;3551;41.578;24.706;2023-03-18T04:23:17;91346.22;;;4.07;65.48
3464;BME280;3551;41.578;24.706;2023-03-18T04:25:50;91348.97;;;3.95;66.10
3464;BME280;3551;41.578;24.706;2023-03-18T04:28:34;91352.03;;;3.97;66.67
3464;BME280;3551;41.578;24.706;2023-03-18T04:31:02;91354.22;;;4.11;66.26
3464;BME280;3551;41.578;24.706;2023-03-18T04:33:40;91352.47;;;3.99;66.33
3464;BME280;3551;41.578;24.706;2023-03-18T04:36:30;91355.50;;;3.82;65.76
3464;BME280;3551;41.578;24.706;2023-03-18T04:39:17;91349.84;;;3.64;66.34
3464;BME280;3551;41.578;24.706;2023-03-18T04:42:01;91350.91;;;3.28;67.67
3464;BME280;3551;41.578;24.706;2023-03-18T04:44:41;91359.06;;;3.39;67.83
3464;BME280;3551;41.578;24.706;2023-03-18T04:47:56;91351.16;;;3.74;66.49
3464;BME280;3551;41.578;24.706;2023-03-18T04:50:33;91347.44;;;3.59;67.17
3464;BME280;3551;41.578;24.706;2023-03-18T04:53:16;91352.38;;;3.76;65.72
3464;BME280;3551;41.578;24.706;2023-03-18T04:58:49;91364.91;;;4.14;64.40
3464;BME280;3551;41.578;24.706;2023-03-18T05:01:24;91361.72;;;4.09;64.22
3464;BME280;3551;41.578;24.706;2023-03-18T05:03:58;91364.66;;;4.04;65.27
3464;BME280;3551;41.578;24.706;2023-03-18T05:06:39;91363.19;;;4.06;65.61
3464;BME280;3551;41.578;24.706;2023-03-18T05:09:12;91359.59;;;4.14;65.46
3464;BME280;3551;41.578;24.706;2023-03-18T05:11:50;91358.22;;;4.20;65.81
3464;BME280;3551;41.578;24.706;2023-03-18T05:14:57;91367.13;;;4.31;66.74
3464;BME280;3551;41.578;24.706;2023-03-18T05:17:30;91368.09;;;4.23;68.15
3464;BME280;3551;41.578;24.706;2023-03-18T05:22:43;91361.28;;;4.22;67.00
3464;BME280;3551;41.578;24.706;2023-03-18T05:25:12;91363.34;;;4.13;64.99
3464;BME280;3551;41.578;24.706;2023-03-18T05:27:47;91366.50;;;4.19;64.32
3464;BME280;3551;41.578;24.706;2023-03-18T05:33:10;91375.59;;;4.02;65.83
3464;BME280;3551;41.578;24.706;2023-03-18T05:35:59;91369.81;;;4.16;66.10
3464;BME280;3551;41.578;24.706;2023-03-18T05:38:32;91376.03;;;4.23;65.71
3464;BME280;3551;41.578;24.706;2023-03-18T05:41:22;91381.31;;;4.23;65.76
3464;BME280;3551;41.578;24.706;2023-03-18T05:43:50;91381.34;;;4.42;65.38
3464;BME280;3551;41.578;24.706;2023-03-18T05:46:34;91372.78;;;4.49;65.88
3464;BME280;3551;41.578;24.706;2023-03-18T05:49:10;91373.59;;;4.53;65.84
3464;BME280;3551;41.578;24.706;2023-03-18T05:51:51;91377.38;;;4.52;65.35
3464;BME280;3551;41.578;24.706;2023-03-18T05:54:39;91376.53;;;4.48;67.92
3464;BME280;3551;41.578;24.706;2023-03-18T05:57:08;91376.69;;;4.55;67.05
3464;BME280;3551;41.578;24.706;2023-03-18T05:59:41;91376.88;;;4.27;62.93
3464;BME280;3551;41.578;24.706;2023-03-18T06:02:25;91380.44;;;4.35;63.27
3464;BME280;3551;41.578;24.706;2023-03-18T06:05:13;91384.84;;;4.46;61.29
3464;BME280;3551;41.578;24.706;2023-03-18T06:07:45;91382.16;;;4.08;60.34
3464;BME280;3551;41.578;24.706;2023-03-18T06:10:30;91379.22;;;4.13;59.25
3464;BME280;3551;41.578;24.706;2023-03-18T06:12:58;91377.34;;;4.33;58.90
3464;BME280;3551;41.578;24.706;2023-03-18T06:15:49;91379.25;;;4.51;58.48
3464;BME280;3551;41.578;24.706;2023-03-18T06:25:41;91373.47;;;5.07;55.67
3464;BME280;3551;41.578;24.706;2023-03-18T06:28:44;91380.78;;;5.14;53.95
3464;BME280;3551;41.578;24.706;2023-03-18T06:31:49;91385.41;;;5.20;53.91
3464;BME280;3551;41.578;24.706;2023-03-18T06:34:24;91373.66;;;5.18;53.93
3464;BME280;3551;41.578;24.706;2023-03-18T06:37:05;91369.75;;;5.34;53.78
3464;BME280;3551;41.578;24.706;2023-03-18T06:39:53;91373.63;;;5.40;52.88
3464;BME280;3551;41.578;24.706;2023-03-18T06:48:24;91371.75;;;5.41;51.97
3464;BME280;3551;41.578;24.706;2023-03-18T06:51:10;91375.66;;;5.24;52.26
3464;BME280;3551;41.578;24.706;2023-03-18T06:53:39;91368.63;;;5.35;51.53
3464;BME280;3551;41.578;24.706;2023-03-18T06:56:15;91366.63;;;5.51;51.20
3464;BME280;3551;41.578;24.706;2023-03-18T06:58:57;91364.75;;;5.78;51.89
3464;BME280;3551;41.578;24.706;2023-03-18T07:01:30;91359.97;;;6.13;53.31
3464;BME280;3551;41.578;24.706;2023-03-18T07:04:38;91356.47;;;6.69;52.75
3464;BME280;3551;41.578;24.706;2023-03-18T07:07:15;91361.69;;;6.92;52.58
3464;BME280;3551;41.578;24.706;2023-03-18T07:10:29;91361.47;;;7.07;49.72
3464;BME280;3551;41.578;24.706;2023-03-18T07:13:15;91362.84;;;7.31;49.27
3464;BME280;3551;41.578;24.706;2023-03-18T07:15:59;91357.59;;;7.42;50.34
3464;BME280;3551;41.578;24.706;2023-03-18T07:18:55;91345.84;;;7.43;52.20
3464;BME280;3551;41.578;24.706;2023-03-18T07:24:30;91351.44;;;6.94;48.30
3464;BME280;3551;41.578;24.706;2023-03-18T07:27:35;91347.78;;;5.83;50.82
3464;BME280;3551;41.578;24.706;2023-03-18T07:33:02;91348.81;;;6.31;54.29
3464;BME280;3551;41.578;24.706;2023-03-18T07:39:17;91344.31;;;6.64;54.64
3464;BME280;3551;41.578;24.706;2023-03-18T07:48:56;91330.53;;;6.26;55.00
3464;BME280;3551;41.578;24.706;2023-03-18T07:51:53;91327.44;;;6.20;56.70
3464;BME280;3551;41.578;24.706;2023-03-18T07:58:43;91332.25;;;6.41;50.19
3464;BME280;3551;41.578;24.706;2023-03-18T08:24:20;91329.16;;;6.68;52.37
3464;BME280;3551;41.578;24.706;2023-03-18T08:27:11;91326.78;;;6.27;52.62
3464;BME280;3551;41.578;24.706;2023-03-18T08:29:59;91329.03;;;6.25;55.00
3464;BME280;3551;41.578;24.706;2023-03-18T08:33:08;91323.25;;;6.49;54.65
3464;BME280;3551;41.578;24.706;2023-03-18T08:39:23;91317.13;;;6.45;54.16
3464;BME280;3551;41.578;24.706;2023-03-18T08:48:31;91318.06;;;6.63;52.62
3464;BME280;3551;41.578;24.706;2023-03-18T08:51:45;91328.88;;;6.44;52.48
3464;BME280;3551;41.578;24.706;2023-03-18T08:54:58;91328.25;;;6.24;51.31
3464;BME280;3551;41.578;24.706;2023-03-18T08:58:38;91330.22;;;6.31;49.48
3464;BME280;3551;41.578;24.706;2023-03-18T09:07:38;91323.34;;;5.96;48.57
3464;BME280;3551;41.578;24.706;2023-03-18T09:23:44;91329.84;;;5.50;49.54
3464;BME280;3551;41.578;24.706;2023-03-18T09:26:42;91322.16;;;5.41;48.67
3464;BME280;3551;41.578;24.706;2023-03-18T09:29:26;91327.66;;;5.55;49.12
3464;BME280;3551;41.578;24.706;2023-03-18T09:32:42;91330.69;;;5.80;49.99
3464;BME280;3551;41.578;24.706;2023-03-18T10:06:34;91323.28;;;4.53;52.29
3464;BME280;3551;41.578;24.706;2023-03-18T10:09:17;91326.50;;;4.43;52.32
3464;BME280;3551;41.578;24.706;2023-03-18T10:15:30;91323.47;;;4.03;53.56
3464;BME280;3551;41.578;24.706;2023-03-18T10:18:16;91323.47;;;4.03;53.36
3464;BME280;3551;41.578;24.706;2023-03-18T10:30:51;91332.28;;;3.91;55.14
3464;BME280;3551;41.578;24.706;2023-03-18T10:33:44;91335.09;;;3.82;55.68
3464;BME280;3551;41.578;24.706;2023-03-18T10:36:51;91338.03;;;3.77;55.64
3464;BME280;3551;41.578;24.706;2023-03-18T10:39:22;91339.75;;;3.70;56.16
3464;BME280;3551;41.578;24.706;2023-03-18T10:41:59;91335.34;;;3.58;56.65
3464;BME280;3551;41.578;24.706;2023-03-18T10:44:56;91334.34;;;3.82;56.17
3464;BME280;3551;41.578;24.706;2023-03-18T11:03:27;91344.41;;;3.41;61.12
3464;BME280;3551;41.578;24.706;2023-03-18T11:05:56;91341.19;;;3.32;62.93
3464;BME280;3551;41.578;24.706;2023-03-18T11:08:30;91346.81;;;3.31;64.68
3464;BME280;3551;41.578;24.706;2023-03-18T11:11:01;91360.38;;;3.14;66.65
3464;BME280;3551;41.578;24.706;2023-03-18T11:13:30;91356.13;;;3.09;67.33
3464;BME280;3551;41.578;24.706;2023-03-18T11:16:00;91364.69;;;2.91;68.89
3464;BME280;3551;41.578;24.706;2023-03-18T11:18:30;91363.94;;;2.90;69.58
3464;BME280;3551;41.578;24.706;2023-03-18T11:20:59;91364.97;;;2.86;68.84
3464;BME280;3551;41.578;24.706;2023-03-18T11:23:31;91365.78;;;2.90;69.78
3464;BME280;3551;41.578;24.706;2023-03-18T11:26:16;91370.75;;;3.22;69.47
3464;BME280;3551;41.578;24.706;2023-03-18T11:28:46;91356.78;;;3.22;68.87
3464;BME280;3551;41.578;24.706;2023-03-18T11:31:15;91364.78;;;3.25;69.46
3464;BME280;3551;41.578;24.706;2023-03-18T11:33:46;91365.97;;;3.44;69.78
3464;BME280;3551;41.578;24.706;2023-03-18T11:36:16;91360.34;;;3.45;69.85
3464;BME280;3551;41.578;24.706;2023-03-18T11:38:54;91363.44;;;3.47;71.06
3464;BME280;3551;41.578;24.706;2023-03-18T11:41:22;91364.66;;;3.69;70.76
3464;BME280;3551;41.578;24.706;2023-03-18T11:43:55;91358.91;;;3.32;71.88
3464;BME280;3551;41.578;24.706;2023-03-18T11:46:23;91358.50;;;3.14;73.98
3464;BME280;3551;41.578;24.706;2023-03-18T11:48:53;91367.69;;;3.05;75.46
3464;BME280;3551;41.578;24.706;2023-03-18T11:51:31;91369.28;;;2.78;78.11
3464;BME280;3551;41.578;24.706;2023-03-18T11:54:12;91376.88;;;2.52;80.45
3464;BME280;3551;41.578;24.706;2023-03-18T11:56:45;91377.34;;;2.54;82.75
3464;BME280;3551;41.578;24.706;2023-03-18T11:59:16;91378.06;;;2.39;85.65
3464;BME280;3551;41.578;24.706;2023-03-18T12:01:48;91387.13;;;2.53;86.98
3464;BME280;3551;41.578;24.706;2023-03-18T12:07:22;91392.63;;;2.76;86.37
3464;BME280;3551;41.578;24.706;2023-03-18T12:09:52;91396.50;;;2.94;86.89
3464;BME280;3551;41.578;24.706;2023-03-18T12:12:39;91395.97;;;3.04;87.36
3464;BME280;3551;41.578;24.706;2023-03-18T12:15:11;91402.63;;;3.14;89.14
3464;BME280;3551;41.578;24.706;2023-03-18T12:17:41;91394.97;;;3.40;88.76
3464;BME280;3551;41.578;24.706;2023-03-18T12:23:12;91389.34;;;3.26;93.57
3464;BME280;3551;41.578;24.706;2023-03-18T12:26:02;91393.78;;;3.22;95.00
3464;BME280;3551;41.578;24.706;2023-03-18T12:28:41;91393.34;;;3.20;96.04
3464;BME280;3551;41.578;24.706;2023-03-18T12:33:56;91388.22;;;3.58;93.55
3464;BME280;3551;41.578;24.706;2023-03-18T12:36:39;91387.44;;;3.58;93.77
3464;BME280;3551;41.578;24.706;2023-03-18T12:42:01;91390.69;;;3.51;93.11
3464;BME280;3551;41.578;24.706;2023-03-18T12:44:35;91393.34;;;3.67;91.87
3464;BME280;3551;41.578;24.706;2023-03-18T12:47:08;91390.00;;;3.70;91.80
3464;BME280;3551;41.578;24.706;2023-03-18T12:49:40;91384.72;;;3.54;92.45
3464;BME280;3551;41.578;24.706;2023-03-18T12:52:10;91387.59;;;3.80;91.52
3464;BME280;3551;41.578;24.706;2023-03-18T12:54:42;91389.16;;;4.01;90.54
3464;BME280;3551;41.578;24.706;2023-03-18T12:57:17;91376.91;;;3.77;90.19
3464;BME280;3551;41.578;24.706;2023-03-18T12:59:49;91378.47;;;3.78;90.85
3464;BME280;3551;41.578;24.706;2023-03-18T13:02:28;91376.88;;;4.08;90.12
3464;BME280;3551;41.578;24.706;2023-03-18T13:05:02;91373.13;;;4.28;88.80
3464;BME280;3551;41.578;24.706;2023-03-18T13:07:33;91374.97;;;4.09;89.33
3464;BME280;3551;41.578;24.706;2023-03-18T13:10:05;91375.97;;;4.20;89.69
3464;BME280;3551;41.578;24.706;2023-03-18T13:12:36;91381.66;;;4.41;89.30
3464;BME280;3551;41.578;24.706;2023-03-18T13:15:05;91375.63;;;4.60;88.53
3464;BME280;3551;41.578;24.706;2023-03-18T13:17:37;91373.66;;;4.76;86.84
3464;BME280;3551;41.578;24.706;2023-03-18T13:20:08;91374.66;;;4.48;85.45
3464;BME280;3551;41.578;24.706;2023-03-18T13:25:30;91370.25;;;4.37;82.61
3464;BME280;3551;41.578;24.706;2023-03-18T13:28:08;91368.22;;;4.49;83.30
3464;BME280;3551;41.578;24.706;2023-03-18T13:30:42;91365.78;;;4.60;83.00
3464;BME280;3551;41.578;24.706;2023-03-18T13:33:20;91361.97;;;4.58;81.71
3464;BME280;3551;41.578;24.706;2023-03-18T13:35:57;91354.38;;;4.56;81.71
3464;BME280;3551;41.578;24.706;2023-03-18T13:38:49;91352.63;;;4.44;82.38
3464;BME280;3551;41.578;24.706;2023-03-18T13:41:29;91343.84;;;4.60;82.34
3464;BME280;3551;41.578;24.706;2023-03-18T13:44:00;91347.19;;;4.76;80.99
3464;BME280;3551;41.578;24.706;2023-03-18T13:46:31;91341.03;;;4.72;81.99
3464;BME280;3551;41.578;24.706;2023-03-18T13:48:59;91342.00;;;4.83;81.95
3464;BME280;3551;41.578;24.706;2023-03-18T13:54:13;91345.03;;;5.04;81.92
3464;BME280;3551;41.578;24.706;2023-03-18T13:56:47;91347.59;;;5.00;82.97
3464;BME280;3551;41.578;24.706;2023-03-18T14:04:46;91335.88;;;5.24;83.92
3464;BME280;3551;41.578;24.706;2023-03-18T14:07:14;91339.38;;;5.28;82.33
3464;BME280;3551;41.578;24.706;2023-03-18T14:09:53;91331.75;;;5.27;81.27
3464;BME280;3551;41.578;24.706;2023-03-18T14:12:22;91339.38;;;5.28;80.14
3464;BME280;3551;41.578;24.706;2023-03-18T14:17:46;91336.06;;;5.35;80.78
3464;BME280;3551;41.578;24.706;2023-03-18T14:20:19;91332.41;;;4.97;82.25
3464;BME280;3551;41.578;24.706;2023-03-18T14:22:49;91339.81;;;5.11;78.32
3464;BME280;3551;41.578;24.706;2023-03-18T14:25:36;91335.34;;;5.15;76.64
3464;BME280;3551;41.578;24.706;2023-03-18T14:28:14;91341.66;;;5.07;77.21
3464;BME280;3551;41.578;24.706;2023-03-18T14:30:44;91335.06;;;5.20;76.37
3464;BME280;3551;41.578;24.706;2023-03-18T14:36:03;91340.81;;;5.26;75.70
3464;BME280;3551;41.578;24.706;2023-03-18T14:38:30;91349.16;;;5.24;74.50
3464;BME280;3551;41.578;24.706;2023-03-18T14:41:00;91339.75;;;4.85;66.34
3464;BME280;3551;41.578;24.706;2023-03-18T14:43:32;91336.00;;;4.86;71.14
3464;BME280;3551;41.578;24.706;2023-03-18T14:46:01;91334.75;;;4.80;66.36
3464;BME280;3551;41.578;24.706;2023-03-18T14:48:30;91330.38;;;4.68;69.33
3464;BME280;3551;41.578;24.706;2023-03-18T14:50:58;91330.75;;;4.67;67.19
3464;BME280;3551;41.578;24.706;2023-03-18T14:53:28;91326.63;;;4.69;69.15
3464;BME280;3551;41.578;24.706;2023-03-18T14:55:57;91328.91;;;4.71;68.75
3464;BME280;3551;41.578;24.706;2023-03-18T14:58:28;91329.34;;;4.73;66.37
3464;BME280;3551;41.578;24.706;2023-03-18T15:00:56;91333.75;;;4.88;67.78
3464;BME280;3551;41.578;24.706;2023-03-18T15:03:30;91327.88;;;4.98;68.10
3464;BME280;3551;41.578;24.706;2023-03-18T15:05:59;91324.59;;;5.04;69.47
3464;BME280;3551;41.578;24.706;2023-03-18T15:08:30;91324.22;;;5.06;69.83
3464;BME280;3551;41.578;24.706;2023-03-18T15:11:01;91324.03;;;4.73;65.47
3464;BME280;3551;41.578;24.706;2023-03-18T15:13:31;91338.25;;;4.65;67.28
3464;BME280;3551;41.578;24.706;2023-03-18T15:15:59;91340.03;;;4.80;68.31
3464;BME280;3551;41.578;24.706;2023-03-18T15:18:29;91336.38;;;4.65;71.66
3464;BME280;3551;41.578;24.706;2023-03-18T15:20:56;91349.53;;;4.81;72.34
3464;BME280;3551;41.578;24.706;2023-03-18T15:23:27;91349.06;;;4.98;72.66
3464;BME280;3551;41.578;24.706;2023-03-18T15:25:56;91344.66;;;5.05;73.42
3464;BME280;3551;41.578;24.706;2023-03-18T15:28:23;91350.03;;;5.09;70.30
3464;BME280;3551;41.578;24.706;2023-03-18T15:30:53;91350.84;;;5.13;68.44
3464;BME280;3551;41.578;24.706;2023-03-18T15:33:23;91354.16;;;5.06;68.68
3464;BME280;3551;41.578;24.706;2023-03-18T15:35:54;91357.38;;;4.96;66.83
3464;BME280;3551;41.578;24.706;2023-03-18T15:38:25;91350.88;;;4.94;65.19
3464;BME280;3551;41.578;24.706;2023-03-18T15:40:53;91344.88;;;4.74;62.84
3464;BME280;3551;41.578;24.706;2023-03-18T15:43:32;91353.03;;;4.66;63.33
3464;BME280;3551;41.578;24.706;2023-03-18T15:46:04;91356.47;;;4.66;64.65
3464;BME280;3551;41.578;24.706;2023-03-18T15:48:32;91358.19;;;4.78;68.32
3464;BME280;3551;41.578;24.706;2023-03-18T15:51:01;91360.63;;;4.67;65.24
3464;BME280;3551;41.578;24.706;2023-03-18T15:53:33;91368.84;;;4.24;66.57
3464;BME280;3551;41.578;24.706;2023-03-18T15:56:06;91363.78;;;4.34;70.63
3464;BME280;3551;41.578;24.706;2023-03-18T15:58:35;91372.63;;;4.61;70.65
3464;BME280;3551;41.578;24.706;2023-03-18T16:01:05;91376.47;;;4.64;68.09
3464;BME280;3551;41.578;24.706;2023-03-18T16:03:33;91380.06;;;4.75;69.44
3464;BME280;3551;41.578;24.706;2023-03-18T16:06:00;91377.72;;;4.70;68.85
3464;BME280;3551;41.578;24.706;2023-03-18T16:08:27;91382.88;;;4.63;66.83
3464;BME280;3551;41.578;24.706;2023-03-18T16:10:55;91390.81;;;4.63;70.55
3464;BME280;3551;41.578;24.706;2023-03-18T16:13:23;91385.66;;;4.50;67.07
3464;BME280;3551;41.578;24.706;2023-03-18T16:15:55;91390.47;;;4.45;71.73
3464;BME280;3551;41.578;24.706;2023-03-18T16:18:22;91397.91;;;4.59;70.02
3464;BME280;3551;41.578;24.706;2023-03-18T16:20:51;91401.13;;;4.68;69.14
3464;BME280;3551;41.578;24.706;2023-03-18T16:23:19;91399.16;;;4.65;69.98
3464;BME280;3551;41.578;24.706;2023-03-18T16:25:47;91403.50;;;4.73;70.10
3464;BME280;3551;41.578;24.706;2023-03-18T16:28:18;91402.38;;;4.54;68.92
3464;BME280;3551;41.578;24.706;2023-03-18T16:30:46;91405.66;;;4.67;67.91
3464;BME280;3551;41.578;24.706;2023-03-18T16:33:15;91415.88;;;4.30;67.48
3464;BME280;3551;41.578;24.706;2023-03-18T16:35:44;91411.69;;;4.29;68.48
3464;BME280;3551;41.578;24.706;2023-03-18T16:38:19;91419.38;;;4.00;69.58
3464;BME280;3551;41.578;24.706;2023-03-18T16:40:47;91419.06;;;3.85;69.66
3464;BME280;3551;41.578;24.706;2023-03-18T16:43:16;91417.94;;;4.02;71.15
3464;BME280;3551;41.578;24.706;2023-03-18T16:45:43;91419.94;;;4.09;72.82
3464;BME280;3551;41.578;24.706;2023-03-18T16:48:12;91423.59;;;4.20;72.73
3464;BME280;3551;41.578;24.706;2023-03-18T16:50:41;91426.94;;;4.17;72.89
3464;BME280;3551;41.578;24.706;2023-03-18T16:53:12;91433.75;;;4.18;73.42
3464;BME280;3551;41.578;24.706;2023-03-18T16:55:42;91431.56;;;4.04;73.78
3464;BME280;3551;41.578;24.706;2023-03-18T16:58:10;91434.22;;;4.04;73.96
3464;BME280;3551;41.578;24.706;2023-03-18T17:00:39;91441.28;;;4.16;72.95
3464;BME280;3551;41.578;24.706;2023-03-18T17:03:11;91437.91;;;4.00;73.23
3464;BME280;3551;41.578;24.706;2023-03-18T17:05:43;91434.06;;;3.97;73.55
3464;BME280;3551;41.578;24.706;2023-03-18T17:08:10;91437.56;;;4.01;72.92
3464;BME280;3551;41.578;24.706;2023-03-18T17:10:40;91438.31;;;4.02;73.74
3464;BME280;3551;41.578;24.706;2023-03-18T17:13:10;91436.94;;;4.08;74.75
3464;BME280;3551;41.578;24.706;2023-03-18T17:15:41;91445.63;;;3.58;75.12
3464;BME280;3551;41.578;24.706;2023-03-18T17:18:11;91438.72;;;3.53;75.25
3464;BME280;3551;41.578;24.706;2023-03-18T17:20:40;91453.38;;;3.51;76.60
3464;BME280;3551;41.578;24.706;2023-03-18T17:23:14;91451.69;;;3.58;75.90
3464;BME280;3551;41.578;24.706;2023-03-18T17:25:44;91450.06;;;3.69;77.83
3464;BME280;3551;41.578;24.706;2023-03-18T17:28:14;91448.88;;;3.67;77.71
3464;BME280;3551;41.578;24.706;2023-03-18T17:30:54;91450.22;;;3.45;76.82
3464;BME280;3551;41.578;24.706;2023-03-18T17:33:23;91451.50;;;3.35;77.64